createdAt,value
2022-10-05T00:00:44.558Z,18.03
2022-10-05T00:03:11.758Z,14.30
2022-10-05T00:05:38.541Z,23.93
2022-10-05T00:08:24.387Z,17.80
2022-10-05T00:10:51.925Z,24.00
2022-10-05T00:13:23.846Z,18.63
2022-10-05T00:15:50.786Z,23.73
2022-10-05T00:18:21.684Z,19.80
2022-10-05T00:20:48.647Z,30.97
2022-10-05T00:23:19.810Z,18.60
2022-10-05T00:25:46.602Z,23.73
2022-10-05T00:28:26.447Z,17.07
2022-10-05T00:30:59.582Z,20.67
2022-10-05T00:33:27.165Z,18.43
2022-10-05T00:35:54.257Z,24.87
2022-10-05T00:38:21.248Z,19.23
2022-10-05T00:40:50.718Z,23.80
2022-10-05T00:43:29.091Z,18.20
2022-10-05T00:46:12.536Z,20.67
2022-10-05T00:48:42.138Z,19.43
2022-10-05T00:51:08.897Z,22.90
2022-10-05T00:53:43.356Z,18.30
2022-10-05T00:56:18.806Z,17.50
2022-10-05T00:58:53.323Z,22.40
2022-10-05T01:01:41.069Z,21.30
2022-10-05T01:04:20.969Z,25.83
2022-10-05T01:07:08.271Z,19.07
2022-10-05T01:09:53.100Z,16.20
2022-10-05T01:12:28.625Z,20.17
2022-10-05T01:15:10.406Z,24.40
2022-10-05T01:17:43.054Z,31.97
2022-10-05T01:20:19.252Z,21.20
2022-10-05T01:22:58.016Z,19.50
2022-10-05T01:25:30.867Z,19.00
2022-10-05T01:28:00.428Z,22.27
2022-10-05T01:30:29.049Z,19.23
2022-10-05T01:33:04.984Z,23.73
2022-10-05T01:35:50.243Z,24.00
2022-10-05T01:38:22.577Z,20.47
2022-10-05T01:40:49.004Z,18.23
2022-10-05T01:43:22.615Z,16.27
2022-10-05T01:45:50.067Z,26.63
2022-10-05T01:48:19.582Z,21.77
2022-10-05T01:51:00.381Z,18.20
2022-10-05T01:53:32.466Z,19.77
2022-10-05T01:56:37.534Z,23.43
2022-10-05T01:59:16.246Z,22.70
2022-10-05T02:01:49.834Z,25.33
2022-10-05T02:04:56.466Z,18.80
2022-10-05T02:07:13.818Z,24.83
2022-10-05T02:09:46.105Z,21.27
2022-10-05T02:12:15.089Z,19.43
2022-10-05T02:14:47.409Z,20.87
2022-10-05T02:17:16.699Z,21.93
2022-10-05T02:19:54.521Z,23.07
2022-10-05T02:22:29.627Z,21.03
2022-10-05T02:24:57.909Z,23.53
2022-10-05T02:27:45.704Z,21.13
2022-10-05T02:30:16.406Z,22.00
2022-10-05T02:32:48.948Z,16.60
2022-10-05T02:35:17.147Z,22.60
2022-10-05T02:38:01.013Z,20.30
2022-10-05T02:40:46.707Z,18.10
2022-10-05T02:43:39.016Z,15.57
2022-10-05T02:46:21.773Z,18.90
2022-10-05T02:49:03.904Z,16.60
2022-10-05T02:51:40.568Z,20.37
2022-10-05T02:54:19.495Z,14.97
2022-10-05T02:57:01.494Z,19.53
2022-10-05T02:59:37.913Z,20.73
2022-10-05T03:02:06.538Z,17.40
2022-10-05T03:04:36.252Z,16.30
2022-10-05T03:07:06.403Z,20.23
2022-10-05T03:09:37.118Z,18.13
2022-10-05T03:12:15.000Z,21.67
2022-10-05T03:15:03.818Z,15.97
2022-10-05T03:17:44.416Z,19.30
2022-10-05T03:20:23.712Z,21.60
2022-10-05T03:22:53.211Z,17.47
2022-10-05T03:25:20.728Z,25.63
2022-10-05T03:28:02.608Z,14.10
2022-10-05T03:30:32.396Z,13.60
2022-10-05T03:33:14.783Z,18.37
2022-10-05T03:35:44.621Z,15.83
2022-10-05T03:38:14.154Z,11.53
2022-10-05T03:40:46.716Z,17.10
2022-10-05T03:43:42.880Z,18.73
2022-10-05T03:46:16.631Z,20.13
2022-10-05T03:48:51.961Z,20.90
2022-10-05T03:51:24.656Z,15.70
2022-10-05T03:53:55.320Z,18.07
2022-10-05T03:56:40.857Z,16.50
2022-10-05T03:59:16.715Z,17.53
2022-10-05T04:01:47.024Z,21.53
2022-10-05T04:04:18.879Z,21.67
2022-10-05T04:06:50.913Z,19.63
2022-10-05T04:09:24.295Z,21.10
2022-10-05T04:11:54.795Z,16.47
2022-10-05T04:14:47.788Z,25.03
2022-10-05T04:17:18.397Z,21.57
2022-10-05T04:19:51.127Z,17.77
2022-10-05T04:22:19.821Z,15.70
2022-10-05T04:24:55.084Z,19.37
2022-10-05T04:27:23.632Z,17.87
2022-10-05T04:30:04.565Z,17.70
2022-10-05T04:32:46.011Z,17.93
2022-10-05T04:35:35.323Z,22.40
2022-10-05T04:38:25.707Z,17.00
2022-10-05T04:41:02.065Z,20.07
2022-10-05T04:43:38.927Z,21.93
2022-10-05T04:46:23.673Z,22.80
2022-10-05T04:49:02.944Z,14.93
2022-10-05T04:51:55.809Z,18.00
2022-10-05T04:54:41.282Z,16.00
2022-10-05T04:57:12.572Z,18.10
2022-10-05T04:59:42.065Z,21.47
2022-10-05T05:02:25.767Z,15.60
2022-10-05T05:05:10.981Z,14.90
2022-10-05T05:07:44.687Z,18.67
2022-10-05T05:10:20.592Z,16.83
2022-10-05T05:12:50.131Z,14.87
2022-10-05T05:15:27.579Z,17.60
2022-10-05T05:18:09.500Z,17.13
2022-10-05T05:20:43.294Z,19.03
2022-10-05T05:23:09.976Z,18.63
2022-10-05T05:25:39.070Z,20.40
2022-10-05T05:28:11.877Z,16.53
2022-10-05T05:30:45.923Z,20.60
2022-10-05T05:33:12.873Z,23.10
2022-10-05T05:35:48.759Z,22.67
2022-10-05T05:38:24.103Z,26.13
2022-10-05T05:40:58.204Z,26.90
2022-10-05T05:43:31.313Z,20.77
2022-10-05T05:46:04.159Z,23.03
2022-10-05T05:48:36.721Z,19.17
2022-10-05T05:51:08.227Z,22.87
2022-10-05T05:53:38.497Z,23.10
2022-10-05T05:56:37.507Z,30.40
2022-10-05T05:59:10.341Z,24.50
2022-10-05T06:01:45.835Z,25.63
2022-10-05T06:04:26.597Z,19.83
2022-10-05T06:06:54.469Z,21.80
2022-10-05T06:09:37.262Z,16.93
2022-10-05T06:12:24.892Z,25.60
2022-10-05T06:14:56.691Z,24.60
2022-10-05T06:17:28.975Z,27.13
2022-10-05T06:20:02.509Z,21.60
2022-10-05T06:22:43.305Z,21.50
2022-10-05T06:25:13.539Z,23.70
2022-10-05T06:28:01.165Z,24.23
2022-10-05T06:30:35.364Z,24.87
2022-10-05T06:33:20.652Z,21.07
2022-10-05T06:36:06.000Z,27.23
2022-10-05T06:38:35.870Z,19.73
2022-10-05T06:41:07.540Z,27.17
2022-10-05T06:43:39.687Z,17.57
2022-10-05T06:46:24.913Z,20.93
2022-10-05T06:49:21.086Z,28.70
2022-10-05T06:52:08.775Z,22.00
2022-10-05T06:54:45.943Z,20.50
2022-10-05T06:57:20.863Z,17.30
2022-10-05T06:59:47.401Z,20.90
2022-10-05T07:02:22.095Z,15.67
2022-10-05T07:04:54.346Z,24.33
2022-10-05T07:07:20.881Z,16.33
2022-10-05T07:10:06.312Z,19.20
2022-10-05T07:12:36.061Z,17.80
2022-10-05T07:15:10.002Z,15.43
2022-10-05T07:17:53.227Z,19.30
2022-10-05T07:20:22.831Z,14.73
2022-10-05T07:23:03.171Z,17.07
2022-10-05T07:25:36.723Z,10.63
2022-10-05T07:28:06.319Z,12.77
2022-10-05T07:30:39.634Z,15.00
2022-10-05T07:33:20.813Z,9.63
2022-10-05T07:36:25.167Z,11.10
2022-10-05T07:38:57.847Z,10.97
2022-10-05T07:41:40.192Z,7.10
2022-10-05T07:44:22.736Z,10.17
2022-10-05T07:46:49.864Z,4.40
2022-10-05T07:49:21.971Z,5.73
2022-10-05T07:51:51.117Z,5.10
2022-10-05T07:54:23.689Z,9.17
2022-10-05T07:57:14.710Z,3.80
2022-10-05T07:59:47.901Z,6.33
2022-10-05T08:02:14.871Z,3.93
2022-10-05T08:04:47.134Z,4.43
2022-10-05T08:07:16.795Z,5.97
2022-10-05T08:09:50.783Z,4.90
2022-10-05T08:12:20.565Z,4.97
2022-10-05T08:14:57.038Z,4.13
2022-10-05T08:17:42.529Z,4.40
2022-10-05T08:20:29.684Z,4.97
2022-10-05T08:23:16.410Z,7.90
2022-10-05T08:25:51.345Z,4.40
2022-10-05T08:28:24.331Z,6.80
2022-10-05T08:30:54.869Z,4.90
2022-10-05T08:33:22.006Z,8.37
2022-10-05T08:35:51.623Z,3.10
2022-10-05T08:38:32.479Z,11.17
2022-10-05T08:40:59.137Z,3.00
2022-10-05T08:43:42.522Z,3.37
2022-10-05T08:46:18.134Z,4.67
2022-10-05T08:48:44.686Z,3.10
2022-10-05T08:51:19.327Z,8.40
2022-10-05T08:54:04.136Z,6.10
2022-10-05T08:56:39.758Z,3.40
2022-10-05T08:59:15.537Z,3.03
2022-10-05T09:01:56.453Z,3.50
2022-10-05T09:04:23.036Z,4.77
2022-10-05T09:06:57.768Z,3.10
2022-10-05T09:09:29.555Z,2.63
2022-10-05T09:12:01.660Z,2.20
2022-10-05T09:14:28.108Z,2.60
2022-10-05T09:16:57.635Z,3.43
2022-10-05T09:19:27.266Z,3.47
2022-10-05T09:22:12.691Z,3.30
2022-10-05T09:24:52.451Z,2.03
2022-10-05T09:27:19.881Z,2.30
2022-10-05T09:30:05.478Z,4.23
2022-10-05T09:32:32.061Z,5.00
2022-10-05T09:35:13.505Z,4.00
2022-10-05T09:37:58.004Z,2.70
2022-10-05T09:40:41.463Z,2.33
2022-10-05T09:43:17.285Z,17.23
2022-10-05T09:46:03.029Z,3.87
2022-10-05T09:48:38.850Z,2.73
2022-10-05T09:51:14.921Z,5.90
2022-10-05T09:53:53.621Z,1.93
2022-10-05T09:56:34.471Z,8.27
2022-10-05T09:59:03.187Z,5.70
2022-10-05T10:01:39.071Z,2.03
2022-10-05T10:04:10.917Z,4.90
2022-10-05T10:06:46.499Z,7.77
2022-10-05T10:09:22.457Z,2.80
2022-10-05T10:12:04.259Z,4.80
2022-10-05T10:14:30.706Z,5.10
2022-10-05T10:17:20.856Z,1.83
2022-10-05T10:19:53.499Z,1.33
2022-10-05T10:22:32.244Z,2.17
2022-10-05T10:25:20.896Z,1.90
2022-10-05T10:28:02.772Z,4.30
2022-10-05T10:30:52.970Z,2.23
2022-10-05T10:33:23.981Z,3.13
2022-10-05T10:36:06.072Z,2.13
2022-10-05T10:38:45.297Z,1.70
2022-10-05T10:41:11.733Z,4.73
2022-10-05T10:43:57.178Z,3.13
2022-10-05T10:46:35.026Z,2.10
2022-10-05T10:49:11.838Z,4.67
2022-10-05T10:51:41.653Z,2.03
2022-10-05T10:54:33.366Z,1.20
2022-10-05T10:57:09.411Z,2.10
2022-10-05T10:59:55.015Z,1.73
2022-10-05T11:02:27.977Z,4.77
2022-10-05T11:05:08.093Z,4.10
2022-10-05T11:07:41.942Z,1.40
2022-10-05T11:10:26.671Z,3.07
2022-10-05T11:13:12.386Z,2.60
2022-10-05T11:15:57.830Z,1.40
2022-10-05T11:18:43.270Z,2.97
2022-10-05T11:21:31.689Z,1.30
2022-10-05T11:24:17.345Z,1.53
2022-10-05T11:26:50.634Z,1.97
2022-10-05T11:29:23.741Z,1.20
2022-10-05T11:32:08.848Z,5.83
2022-10-05T11:34:43.487Z,2.70
2022-10-05T11:37:29.141Z,1.90
2022-10-05T11:40:01.959Z,2.07
2022-10-05T11:42:48.654Z,1.67
2022-10-05T11:45:36.080Z,2.80
2022-10-05T11:48:23.226Z,1.70
2022-10-05T11:51:03.659Z,1.47
2022-10-05T11:53:33.332Z,1.20
2022-10-05T11:56:02.806Z,1.30
2022-10-05T11:58:31.976Z,2.00
2022-10-05T12:01:17.184Z,2.60
2022-10-05T12:03:53.433Z,1.37
2022-10-05T12:06:29.177Z,1.97
2022-10-05T12:08:56.065Z,2.90
2022-10-05T12:11:41.450Z,2.10
2022-10-05T12:14:25.453Z,2.83
2022-10-05T12:17:01.902Z,0.93
2022-10-05T12:19:36.436Z,0.83
2022-10-05T12:22:10.804Z,6.00
2022-10-05T12:24:37.419Z,3.10
2022-10-05T12:27:16.616Z,0.70
2022-10-05T12:30:02.303Z,1.67
2022-10-05T12:32:41.800Z,3.53
2022-10-05T12:35:29.947Z,2.73
2022-10-05T12:38:22.124Z,1.33
2022-10-05T12:40:51.630Z,2.10
2022-10-05T12:43:36.943Z,3.27
2022-10-05T12:46:32.919Z,1.63
2022-10-05T12:49:05.671Z,2.50
2022-10-05T12:51:50.970Z,1.33
2022-10-05T12:54:36.431Z,1.03
2022-10-05T12:57:21.921Z,1.23
2022-10-05T12:59:48.665Z,1.37
2022-10-05T13:02:35.641Z,2.10
2022-10-05T13:05:11.246Z,1.83
2022-10-05T13:07:38.570Z,1.63
2022-10-05T13:10:20.423Z,2.83
2022-10-05T13:12:47.901Z,1.17
2022-10-05T13:15:20.584Z,1.43
2022-10-05T13:17:56.300Z,1.00
2022-10-05T13:20:23.308Z,0.90
2022-10-05T13:23:13.823Z,1.20
2022-10-05T13:25:47.685Z,2.70
2022-10-05T13:28:21.751Z,0.80
2022-10-05T13:31:03.037Z,1.73
2022-10-05T13:33:52.652Z,1.20
2022-10-05T13:36:34.897Z,1.00
2022-10-05T13:39:01.669Z,1.53
2022-10-05T13:41:48.278Z,0.80
2022-10-05T13:44:26.960Z,1.27
2022-10-05T13:47:20.889Z,1.53
2022-10-05T13:49:53.780Z,2.70
2022-10-05T13:52:26.716Z,1.47
2022-10-05T13:54:56.576Z,1.40
2022-10-05T13:57:49.676Z,2.80
2022-10-05T14:00:26.963Z,1.23
2022-10-05T14:02:56.379Z,1.10
2022-10-05T14:05:27.632Z,1.53
2022-10-05T14:07:57.319Z,1.20
2022-10-05T14:10:31.257Z,1.17
2022-10-05T14:12:58.000Z,1.20
2022-10-05T14:15:29.870Z,1.70
2022-10-05T14:17:56.756Z,1.47
2022-10-05T14:20:25.162Z,2.90
2022-10-05T14:22:54.507Z,5.63
2022-10-05T14:25:21.235Z,5.73
2022-10-05T14:27:54.034Z,2.10
2022-10-05T14:30:25.605Z,1.63
2022-10-05T14:32:52.313Z,3.77
2022-10-05T14:35:23.005Z,3.27
2022-10-05T14:37:58.103Z,2.77
2022-10-05T14:40:37.664Z,1.97
2022-10-05T14:43:13.689Z,1.83
2022-10-05T14:46:12.951Z,2.37
2022-10-05T14:48:43.546Z,3.40
2022-10-05T14:51:10.913Z,6.53
2022-10-05T14:53:44.513Z,1.63
2022-10-05T14:56:11.048Z,5.97
2022-10-05T14:58:44.640Z,9.80
2022-10-05T15:01:26.730Z,3.10
2022-10-05T15:03:53.397Z,1.80
2022-10-05T15:06:28.879Z,9.00
2022-10-05T15:08:55.497Z,2.13
2022-10-05T15:11:22.204Z,4.13
2022-10-05T15:13:49.158Z,6.07
2022-10-05T15:16:19.586Z,1.30
2022-10-05T15:18:53.624Z,3.33
2022-10-05T15:21:35.398Z,12.43
2022-10-05T15:24:09.281Z,3.67
2022-10-05T15:26:42.721Z,7.17
2022-10-05T15:29:16.115Z,4.93
2022-10-05T15:32:02.329Z,3.47
2022-10-05T15:34:38.210Z,10.80
2022-10-05T15:37:22.353Z,1.83
2022-10-05T15:39:51.935Z,5.93
2022-10-05T15:42:21.415Z,3.37
2022-10-05T15:44:52.077Z,3.33
2022-10-05T15:47:39.036Z,7.07
2022-10-05T15:50:05.605Z,4.60
2022-10-05T15:52:43.819Z,4.77
2022-10-05T15:55:29.080Z,5.07
2022-10-05T15:58:22.203Z,2.40
2022-10-05T16:00:51.792Z,2.93
2022-10-05T16:03:18.406Z,6.13
2022-10-05T16:06:08.820Z,7.13
2022-10-05T16:08:50.836Z,3.63
2022-10-05T16:11:21.662Z,4.10
2022-10-05T16:13:59.688Z,6.10
2022-10-05T16:16:31.565Z,4.83
2022-10-05T16:19:09.974Z,7.27
2022-10-05T16:21:53.044Z,12.33
2022-10-05T16:24:38.640Z,9.03
2022-10-05T16:27:11.648Z,13.27
2022-10-05T16:29:53.181Z,9.67
2022-10-05T16:32:24.951Z,10.43
2022-10-05T16:34:57.777Z,11.63
2022-10-05T16:37:43.426Z,13.33
2022-10-05T16:40:22.517Z,5.27
2022-10-05T16:43:08.120Z,7.87
2022-10-05T16:45:51.833Z,8.70
2022-10-05T16:48:18.439Z,7.93
2022-10-05T16:50:49.530Z,6.63
2022-10-05T16:53:23.442Z,6.20
2022-10-05T16:55:55.597Z,5.17
2022-10-05T16:58:31.364Z,11.43
2022-10-05T17:01:08.478Z,7.63
2022-10-05T17:03:39.991Z,9.63
2022-10-05T17:06:12.107Z,8.07
2022-10-05T17:08:39.004Z,14.10
2022-10-05T17:11:12.257Z,8.53
2022-10-05T17:13:41.949Z,3.30
2022-10-05T17:16:27.649Z,8.67
2022-10-05T17:19:06.597Z,6.17
2022-10-05T17:21:45.337Z,2.93
2022-10-05T17:24:11.884Z,11.13
2022-10-05T17:26:57.373Z,8.63
2022-10-05T17:29:42.846Z,4.13
2022-10-05T17:32:11.240Z,4.70
2022-10-05T17:34:39.456Z,8.20
2022-10-05T17:37:35.650Z,4.30
2022-10-05T17:40:25.146Z,8.70
2022-10-05T17:42:59.309Z,4.23
2022-10-05T17:45:31.818Z,4.30
2022-10-05T17:47:59.280Z,6.13
2022-10-05T17:51:17.213Z,6.73
2022-10-05T17:54:02.675Z,3.17
2022-10-05T17:56:49.627Z,2.97
2022-10-05T17:59:37.034Z,3.60
2022-10-05T18:02:22.799Z,3.30
2022-10-05T18:05:14.436Z,9.27
2022-10-05T18:07:42.051Z,12.10
2022-10-05T18:10:11.814Z,2.13
2022-10-05T18:12:41.443Z,9.13
2022-10-05T18:15:08.160Z,5.20
2022-10-05T18:17:45.614Z,7.73
2022-10-05T18:20:15.334Z,4.70
2022-10-05T18:22:46.351Z,5.20
2022-10-05T18:25:28.340Z,4.33
2022-10-05T18:28:16.071Z,4.80
2022-10-05T18:30:44.716Z,7.90
2022-10-05T18:33:23.238Z,7.30
2022-10-05T18:35:55.254Z,4.63
2022-10-05T18:38:28.540Z,4.13
2022-10-05T18:41:04.624Z,5.40
2022-10-05T18:43:34.163Z,3.93
2022-10-05T18:46:11.892Z,3.73
2022-10-05T18:48:47.891Z,6.60
2022-10-05T18:51:30.960Z,3.93
2022-10-05T18:54:06.143Z,13.87
2022-10-05T18:56:42.301Z,4.23
2022-10-05T18:59:08.814Z,3.23
2022-10-05T19:01:38.705Z,6.40
2022-10-05T19:04:24.122Z,4.37
2022-10-05T19:06:53.928Z,2.37
2022-10-05T19:09:39.462Z,3.83
2022-10-05T19:12:09.153Z,4.83
2022-10-05T19:14:48.212Z,3.57
2022-10-05T19:17:25.766Z,3.63
2022-10-05T19:19:52.453Z,2.00
2022-10-05T19:22:28.076Z,4.27
2022-10-05T19:25:10.085Z,4.40
2022-10-05T19:27:59.668Z,3.87
2022-10-05T19:30:27.304Z,2.60
2022-10-05T19:32:57.015Z,3.63
2022-10-05T19:35:42.477Z,5.50
2022-10-05T19:38:15.549Z,3.90
2022-10-05T19:41:01.387Z,6.60
2022-10-05T19:43:50.298Z,4.10
2022-10-05T19:46:42.089Z,2.47
2022-10-05T19:49:09.444Z,10.23
2022-10-05T19:51:46.230Z,14.13
2022-10-05T19:54:16.215Z,3.40
2022-10-05T19:56:47.846Z,6.77
2022-10-05T19:59:18.388Z,3.83
2022-10-05T20:01:55.386Z,3.77
2022-10-05T20:04:33.095Z,7.17
2022-10-05T20:07:00.968Z,3.33
2022-10-05T20:09:28.194Z,7.70
2022-10-05T20:11:55.403Z,9.77
2022-10-05T20:14:31.867Z,3.10
2022-10-05T20:17:52.768Z,3.73
2022-10-05T20:20:34.366Z,4.57
2022-10-05T20:23:21.160Z,7.97
2022-10-05T20:26:07.860Z,3.73
2022-10-05T20:28:34.570Z,5.53
2022-10-05T20:31:01.262Z,3.67
2022-10-05T20:33:29.003Z,4.67
2022-10-05T20:35:55.925Z,5.30
2022-10-05T20:38:22.901Z,8.93
2022-10-05T20:40:49.412Z,4.60
2022-10-05T20:43:15.963Z,4.63
2022-10-05T20:45:43.287Z,9.77
2022-10-05T20:48:10.429Z,4.47
2022-10-05T20:50:37.679Z,6.27
2022-10-05T20:53:09.629Z,13.27
2022-10-05T20:55:38.394Z,5.03
2022-10-05T20:58:04.949Z,3.93
2022-10-05T21:00:51.489Z,4.20
2022-10-05T21:03:18.638Z,6.27
2022-10-05T21:05:45.809Z,4.17
2022-10-05T21:08:12.413Z,4.73
2022-10-05T21:10:40.216Z,7.10
2022-10-05T21:13:06.706Z,9.00
2022-10-05T21:15:33.277Z,5.10
2022-10-05T21:17:59.797Z,6.40
2022-10-05T21:20:26.292Z,11.33
2022-10-05T21:22:52.767Z,9.40
2022-10-05T21:25:19.313Z,10.80
2022-10-05T21:27:48.587Z,5.27
2022-10-05T21:30:15.241Z,5.63
2022-10-05T21:32:44.443Z,8.73
2022-10-05T21:35:11.364Z,4.97
2022-10-05T21:37:38.022Z,4.03
2022-10-05T21:40:05.050Z,3.93
2022-10-05T21:42:31.830Z,1.80
2022-10-05T21:44:58.335Z,1.97
2022-10-05T21:47:25.405Z,3.27
2022-10-05T21:49:51.994Z,2.50
2022-10-05T21:52:18.799Z,4.00
2022-10-05T21:54:45.767Z,5.97
2022-10-05T21:57:12.679Z,1.83
2022-10-05T21:59:40.115Z,3.30
2022-10-05T22:02:06.794Z,16.30
2022-10-05T22:04:33.285Z,9.50
2022-10-05T22:06:59.761Z,4.17
2022-10-05T22:09:26.251Z,7.83
2022-10-05T22:11:52.837Z,4.93
2022-10-05T22:14:19.367Z,6.63
2022-10-05T22:16:45.975Z,4.77
2022-10-05T22:19:14.040Z,8.13
2022-10-05T22:21:41.823Z,5.40
2022-10-05T22:24:09.247Z,4.20
2022-10-05T22:26:35.906Z,6.33
2022-10-05T22:29:03.436Z,2.93
2022-10-05T22:31:30.060Z,12.30
2022-10-05T22:33:56.724Z,8.93
2022-10-05T22:36:23.385Z,4.63
2022-10-05T22:38:49.911Z,3.00
2022-10-05T22:41:19.405Z,3.57
2022-10-05T22:43:50.328Z,3.17
2022-10-05T22:46:17.232Z,3.77
2022-10-05T22:48:43.840Z,4.03
2022-10-05T22:51:10.799Z,3.87
2022-10-05T22:53:37.486Z,2.10
2022-10-05T22:56:05.318Z,1.40
2022-10-05T22:58:31.905Z,5.30
2022-10-05T23:01:03.571Z,5.50
2022-10-05T23:03:30.550Z,1.23
2022-10-05T23:05:57.918Z,5.60
2022-10-05T23:08:24.665Z,2.40
2022-10-05T23:10:52.734Z,2.27
2022-10-05T23:13:19.240Z,14.43
2022-10-05T23:15:45.723Z,3.77
2022-10-05T23:18:12.257Z,4.70
2022-10-05T23:20:40.116Z,13.50
2022-10-05T23:23:06.766Z,3.83
2022-10-05T23:25:33.308Z,4.57
2022-10-05T23:28:01.440Z,4.93
2022-10-05T23:30:28.328Z,6.13
2022-10-05T23:32:54.882Z,5.30
2022-10-05T23:35:21.583Z,9.27
2022-10-05T23:37:48.107Z,12.13
2022-10-05T23:40:14.700Z,2.67
2022-10-05T23:42:41.529Z,12.63
2022-10-05T23:45:11.853Z,2.80
2022-10-05T23:47:39.039Z,16.40
2022-10-05T23:50:08.729Z,8.13
2022-10-05T23:52:35.561Z,10.87
2022-10-05T23:55:02.520Z,6.63
2022-10-05T23:57:29.074Z,7.07
2022-10-05T23:59:56.350Z,3.57
